createdAt,value
2022-12-22T00:02:22.706Z,100320.56
2022-12-22T00:04:49.813Z,100319.72
2022-12-22T00:07:16.482Z,100315.50
2022-12-22T00:09:43.185Z,100326.44
2022-12-22T00:12:11.883Z,100327.69
2022-12-22T00:14:38.504Z,100322.41
2022-12-22T00:17:25.261Z,100323.94
2022-12-22T00:19:51.859Z,100329.69
2022-12-22T00:22:24.175Z,100329.25
2022-12-22T00:24:50.792Z,100316.75
2022-12-22T00:27:26.081Z,100313.66
2022-12-22T00:29:52.828Z,100310.19
2022-12-22T00:32:19.597Z,100308.56
2022-12-22T00:34:46.267Z,100303.44
2022-12-22T00:37:13.605Z,100303.28
2022-12-22T00:39:40.177Z,100308.97
2022-12-22T00:42:06.749Z,100303.25
2022-12-22T00:44:33.460Z,100300.00
2022-12-22T00:47:00.281Z,100296.56
2022-12-22T00:49:30.269Z,100304.94
2022-12-22T00:51:57.013Z,100306.44
2022-12-22T00:54:23.611Z,100302.41
2022-12-22T00:56:50.190Z,100299.75
2022-12-22T00:59:16.895Z,100298.00
2022-12-22T01:01:43.723Z,100295.63
2022-12-22T01:04:10.890Z,100291.00
2022-12-22T01:06:37.481Z,100292.63
2022-12-22T01:09:05.609Z,100300.09
2022-12-22T01:11:33.468Z,100296.44
2022-12-22T01:14:00.226Z,100294.63
2022-12-22T01:16:26.873Z,100282.63
2022-12-22T01:18:53.510Z,100282.59
2022-12-22T01:21:20.841Z,100283.22
2022-12-22T01:23:47.456Z,100280.47
2022-12-22T01:26:14.060Z,100281.59
2022-12-22T01:28:40.700Z,100277.00
2022-12-22T01:31:31.814Z,100267.63
2022-12-22T01:33:58.404Z,100275.09
2022-12-22T01:36:25.091Z,100266.25
2022-12-22T01:38:51.684Z,100268.06
2022-12-22T01:41:20.574Z,100267.59
2022-12-22T01:43:47.658Z,100249.03
2022-12-22T01:46:25.539Z,100245.31
2022-12-22T01:48:52.168Z,100249.31
2022-12-22T01:51:26.750Z,100249.41
2022-12-22T01:53:55.113Z,100257.19
2022-12-22T01:56:22.127Z,100254.06
2022-12-22T01:58:53.998Z,100249.50
2022-12-22T02:01:20.740Z,100254.88
2022-12-22T02:03:47.399Z,100250.41
2022-12-22T02:06:31.801Z,100246.38
2022-12-22T02:09:21.245Z,100257.38
2022-12-22T02:12:05.369Z,100264.25
2022-12-22T02:14:37.790Z,100265.53
2022-12-22T02:17:27.228Z,100250.47
2022-12-22T02:20:08.945Z,100256.38
2022-12-22T02:22:46.517Z,100249.56
2022-12-22T02:25:24.623Z,100261.03
2022-12-22T02:27:54.410Z,100255.66
2022-12-22T02:30:21.147Z,100258.28
2022-12-22T02:32:48.122Z,100254.44
2022-12-22T02:35:16.576Z,100241.38
2022-12-22T02:38:24.683Z,100247.22
2022-12-22T02:40:59.723Z,100237.63
2022-12-22T02:43:53.909Z,100245.44
2022-12-22T02:46:41.550Z,100236.97
2022-12-22T02:49:25.913Z,100243.88
2022-12-22T02:52:09.337Z,100241.56
2022-12-22T02:54:36.369Z,100241.56
2022-12-22T02:57:06.838Z,100237.88
2022-12-22T02:59:33.489Z,100246.69
2022-12-22T03:02:00.292Z,100248.78
2022-12-22T03:04:27.034Z,100242.66
2022-12-22T03:06:53.663Z,100239.16
2022-12-22T03:09:20.265Z,100239.97
2022-12-22T03:11:46.842Z,100246.81
2022-12-22T03:14:13.481Z,100241.03
2022-12-22T03:16:40.163Z,100237.22
2022-12-22T03:19:06.772Z,100230.03
2022-12-22T03:21:33.419Z,100234.84
2022-12-22T03:24:00.069Z,100243.03
2022-12-22T03:26:26.803Z,100234.50
2022-12-22T03:28:53.593Z,100232.72
2022-12-22T03:31:20.319Z,100227.53
2022-12-22T03:33:47.525Z,100228.31
2022-12-22T03:36:14.130Z,100220.53
2022-12-22T03:38:40.768Z,100219.13
2022-12-22T03:41:07.365Z,100209.84
2022-12-22T03:43:33.932Z,100212.31
2022-12-22T03:46:01.780Z,100211.56
2022-12-22T03:48:29.241Z,100204.09
2022-12-22T03:50:55.861Z,100195.06
2022-12-22T03:53:22.562Z,100200.94
2022-12-22T03:55:49.140Z,100205.97
2022-12-22T03:58:15.726Z,100204.97
2022-12-22T04:00:42.419Z,100210.16
2022-12-22T04:03:09.155Z,100206.75
2022-12-22T04:05:35.881Z,100209.72
2022-12-22T04:08:02.463Z,100204.44
2022-12-22T04:10:29.093Z,100210.41
2022-12-22T04:12:55.727Z,100209.75
2022-12-22T04:15:31.373Z,100202.03
2022-12-22T04:17:59.213Z,100214.22
2022-12-22T04:20:27.633Z,100217.25
2022-12-22T04:22:55.163Z,100215.34
2022-12-22T04:25:22.853Z,100221.22
2022-12-22T04:27:49.470Z,100221.84
2022-12-22T04:30:16.517Z,100224.47
2022-12-22T04:32:44.009Z,100231.16
2022-12-22T04:35:11.806Z,100225.41
2022-12-22T04:37:38.417Z,100216.72
2022-12-22T04:40:05.769Z,100221.06
2022-12-22T04:42:32.345Z,100231.22
2022-12-22T04:44:58.966Z,100227.34
2022-12-22T04:47:25.534Z,100231.91
2022-12-22T04:49:52.171Z,100225.75
2022-12-22T04:52:18.766Z,100224.16
2022-12-22T04:54:45.355Z,100224.06
2022-12-22T04:57:12.109Z,100222.06
2022-12-22T04:59:38.796Z,100220.97
2022-12-22T05:02:05.530Z,100213.66
2022-12-22T05:04:32.330Z,100208.41
2022-12-22T05:06:59.053Z,100202.31
2022-12-22T05:09:25.680Z,100205.09
2022-12-22T05:11:52.269Z,100211.53
2022-12-22T05:14:18.884Z,100205.06
2022-12-22T05:16:45.528Z,100205.94
2022-12-22T05:19:12.253Z,100206.38
2022-12-22T05:21:38.942Z,100208.41
2022-12-22T05:24:06.729Z,100205.44
2022-12-22T05:26:33.419Z,100212.44
2022-12-22T05:29:00.127Z,100211.69
2022-12-22T05:31:26.839Z,100214.72
2022-12-22T05:33:53.550Z,100203.44
2022-12-22T05:36:20.173Z,100206.84
2022-12-22T05:38:46.791Z,100207.34
2022-12-22T05:41:13.547Z,100205.63
2022-12-22T05:43:40.226Z,100205.25
2022-12-22T05:46:09.770Z,100210.72
2022-12-22T05:48:38.864Z,100216.25
2022-12-22T05:51:09.694Z,100225.34
2022-12-22T05:53:37.435Z,100214.47
2022-12-22T05:56:04.552Z,100220.25
2022-12-22T05:58:31.148Z,100217.59
2022-12-22T06:00:58.446Z,100209.09
2022-12-22T06:03:26.809Z,100216.28
2022-12-22T06:05:54.350Z,100216.47
2022-12-22T06:08:21.135Z,100211.06
2022-12-22T06:10:48.019Z,100207.41
2022-12-22T06:13:14.889Z,100205.16
2022-12-22T06:15:41.573Z,100199.19
2022-12-22T06:18:08.207Z,100197.13
2022-12-22T06:20:34.875Z,100212.88
2022-12-22T06:23:01.486Z,100218.06
2022-12-22T06:25:28.116Z,100220.31
2022-12-22T06:27:54.749Z,100222.16
2022-12-22T06:30:24.527Z,100230.59
2022-12-22T06:32:54.082Z,100237.06
2022-12-22T06:35:20.657Z,100236.22
2022-12-22T06:37:47.251Z,100236.22
2022-12-22T06:40:14.138Z,100228.41
2022-12-22T06:42:40.776Z,100226.66
2022-12-22T06:45:07.916Z,100221.34
2022-12-22T06:47:34.504Z,100218.38
2022-12-22T06:50:01.102Z,100214.75
2022-12-22T06:52:27.684Z,100218.31
2022-12-22T06:54:54.278Z,100221.59
2022-12-22T06:57:20.856Z,100218.66
2022-12-22T06:59:50.900Z,100220.19
2022-12-22T07:02:20.471Z,100212.41
2022-12-22T07:04:47.243Z,100227.16
2022-12-22T07:07:13.835Z,100230.44
2022-12-22T07:09:40.455Z,100231.53
2022-12-22T07:12:07.318Z,100231.53
2022-12-22T07:14:33.927Z,100236.22
2022-12-22T07:17:00.511Z,100228.81
2022-12-22T07:19:27.211Z,100228.91
2022-12-22T07:21:53.829Z,100222.59
2022-12-22T07:24:20.488Z,100220.47
2022-12-22T07:26:47.081Z,100217.59
2022-12-22T07:29:13.667Z,100224.31
2022-12-22T07:31:40.357Z,100228.25
2022-12-22T07:34:06.994Z,100230.66
2022-12-22T07:36:33.684Z,100237.94
2022-12-22T07:39:00.364Z,100228.16
2022-12-22T07:41:26.976Z,100230.47
2022-12-22T07:43:55.085Z,100237.75
2022-12-22T07:46:23.473Z,100240.31
2022-12-22T07:48:50.197Z,100245.38
2022-12-22T07:51:16.795Z,100239.19
2022-12-22T07:53:43.413Z,100246.72
2022-12-22T07:56:10.084Z,100256.81
2022-12-22T07:58:36.750Z,100252.44
2022-12-22T08:01:03.386Z,100249.28
2022-12-22T08:03:30.118Z,100250.75
2022-12-22T08:05:56.763Z,100254.63
2022-12-22T08:08:23.359Z,100259.31
2022-12-22T08:10:50.022Z,100255.59
2022-12-22T08:13:16.808Z,100257.25
2022-12-22T08:15:43.499Z,100251.19
2022-12-22T08:18:10.183Z,100243.06
2022-12-22T08:20:36.847Z,100246.78
2022-12-22T08:23:03.479Z,100249.50
2022-12-22T08:25:32.351Z,100255.47
2022-12-22T08:27:59.963Z,100253.34
2022-12-22T08:30:27.486Z,100250.03
2022-12-22T08:32:54.082Z,100251.16
2022-12-22T08:35:20.835Z,100248.19
2022-12-22T08:37:48.746Z,100263.69
2022-12-22T08:40:21.834Z,100258.38
2022-12-22T08:43:00.256Z,100248.91
2022-12-22T08:45:26.833Z,100249.59
2022-12-22T08:47:53.822Z,100244.28
2022-12-22T08:50:20.442Z,100241.31
2022-12-22T08:52:47.032Z,100235.69
2022-12-22T08:55:13.630Z,100249.81
2022-12-22T08:57:40.373Z,100247.22
2022-12-22T09:00:09.555Z,100242.50
2022-12-22T09:02:36.823Z,100245.81
2022-12-22T09:05:03.691Z,100240.88
2022-12-22T09:07:30.387Z,100239.06
2022-12-22T09:09:56.986Z,100236.22
2022-12-22T09:12:23.581Z,100230.66
2022-12-22T09:14:50.198Z,100226.53
2022-12-22T09:17:16.838Z,100224.06
2022-12-22T09:19:43.450Z,100218.75
2022-12-22T09:22:10.132Z,100215.31
2022-12-22T09:24:36.708Z,100216.03
2022-12-22T09:27:03.483Z,100208.88
2022-12-22T09:29:30.160Z,100209.50
2022-12-22T09:31:56.820Z,100192.00
2022-12-22T09:34:23.509Z,100180.88
2022-12-22T09:36:50.115Z,100194.06
2022-12-22T09:39:16.750Z,100199.00
2022-12-22T09:41:46.793Z,100193.38
2022-12-22T09:44:22.849Z,100211.41
2022-12-22T09:46:50.730Z,100196.75
2022-12-22T09:49:19.175Z,100193.91
2022-12-22T09:52:05.111Z,100191.97
2022-12-22T09:54:31.854Z,100189.25
2022-12-22T09:56:58.745Z,100197.88
2022-12-22T09:59:28.695Z,100194.06
2022-12-22T10:01:55.408Z,100188.31
2022-12-22T10:04:53.175Z,100175.38
2022-12-22T10:07:28.442Z,100178.63
2022-12-22T10:09:55.099Z,100173.53
2022-12-22T10:12:24.836Z,100169.34
2022-12-22T10:14:53.068Z,100172.72
2022-12-22T10:17:33.345Z,100177.22
2022-12-22T10:20:21.669Z,100165.16
2022-12-22T10:22:49.280Z,100162.00
2022-12-22T10:25:52.417Z,100171.16
2022-12-22T10:28:30.082Z,100168.91
2022-12-22T10:31:17.489Z,100163.91
2022-12-22T10:33:47.555Z,100164.56
2022-12-22T10:36:21.728Z,100155.25
2022-12-22T10:38:54.138Z,100148.81
2022-12-22T10:41:23.721Z,100154.41
2022-12-22T10:43:55.711Z,100144.34
2022-12-22T10:46:35.963Z,100141.22
2022-12-22T10:49:15.597Z,100139.72
2022-12-22T10:51:45.871Z,100127.31
2022-12-22T10:54:48.009Z,100109.69
2022-12-22T10:57:14.615Z,100101.84
2022-12-22T10:59:59.454Z,100111.00
2022-12-22T11:02:35.574Z,100121.41
2022-12-22T11:05:08.422Z,100107.72
2022-12-22T11:07:46.427Z,100101.66
2022-12-22T11:10:15.936Z,100094.63
2022-12-22T11:12:45.044Z,100106.09
2022-12-22T11:15:49.608Z,100123.22
2022-12-22T11:18:18.677Z,100115.41
2022-12-22T11:20:50.803Z,100117.31
2022-12-22T11:23:35.248Z,100124.19
2022-12-22T11:26:04.410Z,100127.75
2022-12-22T11:28:46.051Z,100123.34
2022-12-22T11:31:24.193Z,100117.38
2022-12-22T11:33:53.360Z,100115.59
2022-12-22T11:36:23.867Z,100106.97
2022-12-22T11:39:00.934Z,100113.69
2022-12-22T11:41:33.016Z,100104.81
2022-12-22T11:44:14.892Z,100101.66
2022-12-22T11:46:54.709Z,100107.84
2022-12-22T11:49:32.941Z,100096.63
2022-12-22T11:52:28.152Z,100098.41
2022-12-22T11:55:03.731Z,100094.06
2022-12-22T11:58:08.839Z,100110.84
2022-12-22T12:01:13.103Z,100106.19
2022-12-22T12:04:08.020Z,100101.88
2022-12-22T12:07:14.245Z,100107.31
2022-12-22T12:09:46.739Z,100100.75
2022-12-22T12:12:25.181Z,100095.72
2022-12-22T12:15:29.063Z,100103.47
2022-12-22T12:18:12.594Z,100100.72
2022-12-22T12:20:48.227Z,100103.06
2022-12-22T12:23:28.042Z,100101.53
2022-12-22T12:25:54.588Z,100105.88
2022-12-22T12:28:38.444Z,100106.47
2022-12-22T12:31:07.535Z,100097.22
2022-12-22T12:33:43.879Z,100106.13
2022-12-22T12:36:24.091Z,100095.75
2022-12-22T12:39:28.889Z,100088.84
2022-12-22T12:42:32.745Z,100106.19
2022-12-22T12:44:59.812Z,100116.59
2022-12-22T12:47:31.968Z,100119.06
2022-12-22T12:50:31.511Z,100125.81
2022-12-22T12:52:58.447Z,100131.16
2022-12-22T12:55:32.656Z,100129.31
2022-12-22T12:58:02.479Z,100130.13
2022-12-22T13:00:31.857Z,100129.31
2022-12-22T13:03:00.730Z,100119.53
2022-12-22T13:05:29.522Z,100122.31
2022-12-22T13:08:18.791Z,100123.31
2022-12-22T13:10:54.243Z,100131.06
2022-12-22T13:13:23.619Z,100118.91
2022-12-22T13:15:59.450Z,100120.00
2022-12-22T13:18:26.164Z,100108.63
2022-12-22T13:21:51.672Z,100097.44
2022-12-22T13:24:28.626Z,100103.56
2022-12-22T13:27:02.068Z,100101.75
2022-12-22T13:29:40.115Z,100092.03
2022-12-22T13:32:24.573Z,100092.09
2022-12-22T13:35:28.993Z,100085.31
2022-12-22T13:37:44.549Z,100070.41
2022-12-22T13:40:20.657Z,100061.69
2022-12-22T13:42:56.475Z,100077.47
2022-12-22T13:45:45.153Z,100077.59
2022-12-22T13:48:17.396Z,100073.25
2022-12-22T13:50:48.951Z,100066.31
2022-12-22T13:53:50.000Z,100068.00
2022-12-22T13:56:20.814Z,100057.63
2022-12-22T13:58:53.243Z,100038.50
2022-12-22T14:01:20.357Z,100039.34
2022-12-22T14:04:03.204Z,100050.69
2022-12-22T14:06:33.577Z,100019.41
2022-12-22T14:09:29.508Z,100002.97
2022-12-22T14:12:02.012Z,100017.75
2022-12-22T14:14:34.183Z,99995.00
2022-12-22T14:17:01.843Z,99996.78
2022-12-22T14:19:34.999Z,100018.59
2022-12-22T14:22:15.489Z,100004.63
2022-12-22T14:24:46.287Z,100018.50
2022-12-22T14:27:39.034Z,100046.09
2022-12-22T14:30:15.744Z,100020.81
2022-12-22T14:32:55.201Z,100050.63
2022-12-22T14:35:22.322Z,100020.75
2022-12-22T14:37:55.241Z,100033.88
2022-12-22T14:40:37.870Z,100022.00
2022-12-22T14:43:21.011Z,100061.06
2022-12-22T14:45:51.669Z,100047.63
2022-12-22T14:48:32.498Z,100053.25
2022-12-22T14:50:59.814Z,100058.16
2022-12-22T14:53:49.800Z,100073.97
2022-12-22T14:56:17.670Z,100086.72
2022-12-22T14:58:46.297Z,100100.56
2022-12-22T15:01:17.303Z,100107.31
2022-12-22T15:03:46.400Z,100103.81
2022-12-22T15:06:28.282Z,100076.69
2022-12-22T15:09:13.532Z,100069.22
2022-12-22T15:12:14.938Z,100066.84
2022-12-22T15:14:42.390Z,100066.91
2022-12-22T15:17:21.748Z,100079.94
2022-12-22T15:19:48.991Z,100077.22
2022-12-22T15:22:15.632Z,100069.44
2022-12-22T15:24:42.226Z,100061.78
2022-12-22T15:27:08.851Z,100055.78
2022-12-22T15:29:35.460Z,100052.16
2022-12-22T15:32:02.074Z,100053.06
2022-12-22T15:34:31.957Z,100048.69
2022-12-22T15:36:58.639Z,100046.84
2022-12-22T15:39:25.325Z,100049.41
2022-12-22T15:41:51.915Z,100044.88
2022-12-22T15:44:18.702Z,100038.06
2022-12-22T15:46:52.913Z,100038.97
2022-12-22T15:49:22.737Z,100029.13
2022-12-22T15:51:56.444Z,100035.50
2022-12-22T15:54:26.360Z,100029.31
2022-12-22T15:56:54.842Z,100021.50
2022-12-22T15:59:24.916Z,100026.63
2022-12-22T16:01:56.611Z,100017.94
2022-12-22T16:04:27.054Z,100010.41
2022-12-22T16:06:54.145Z,100011.78
2022-12-22T16:09:25.252Z,100010.84
2022-12-22T16:11:52.097Z,100018.09
2022-12-22T16:14:20.601Z,100001.53
2022-12-22T16:16:47.211Z,99983.47
2022-12-22T16:19:16.454Z,99988.69
2022-12-22T16:21:47.714Z,99995.72
2022-12-22T16:24:27.009Z,100001.66
2022-12-22T16:26:54.351Z,99996.25
2022-12-22T16:29:20.956Z,99995.53
2022-12-22T16:31:47.590Z,100006.00
2022-12-22T16:34:14.308Z,100022.25
2022-12-22T16:36:41.005Z,100020.44
2022-12-22T16:39:07.614Z,100012.75
2022-12-22T16:41:34.414Z,100034.38
2022-12-22T16:46:46.759Z,100042.13
2022-12-22T16:49:22.932Z,100042.31
2022-12-22T16:51:53.958Z,100041.47
2022-12-22T16:54:20.653Z,100037.97
2022-12-22T16:56:47.399Z,100051.13
2022-12-22T16:59:14.313Z,100031.66
2022-12-22T17:01:55.810Z,100048.00
2022-12-22T17:04:30.426Z,100031.56
2022-12-22T17:06:59.811Z,100044.19
2022-12-22T17:09:42.641Z,100042.94
2022-12-22T17:12:17.106Z,100038.94
2022-12-22T17:14:44.107Z,100039.44
2022-12-22T17:17:18.439Z,100032.59
2022-12-22T17:19:45.086Z,100035.09
2022-12-22T17:22:22.331Z,100036.75
2022-12-22T17:24:51.365Z,100018.84
2022-12-22T17:27:23.446Z,100037.25
2022-12-22T17:29:50.649Z,100016.22
2022-12-22T17:32:20.480Z,100014.44
2022-12-22T17:34:47.667Z,100027.41
2022-12-22T17:37:21.414Z,100014.53
2022-12-22T17:39:50.783Z,100015.09
2022-12-22T17:42:22.633Z,100028.97
2022-12-22T17:44:50.940Z,100019.56
2022-12-22T17:47:23.848Z,100016.09
2022-12-22T17:49:55.227Z,100016.50
2022-12-22T17:52:23.920Z,100021.38
2022-12-22T17:54:52.615Z,100031.22
2022-12-22T17:57:23.630Z,100025.06
2022-12-22T17:59:50.265Z,100019.88
2022-12-22T18:02:19.657Z,100018.28
2022-12-22T18:04:47.297Z,100035.31
2022-12-22T18:07:17.399Z,100033.66
2022-12-22T18:09:45.625Z,100039.34
2022-12-22T18:12:21.991Z,100028.75
2022-12-22T18:14:49.464Z,100029.34
2022-12-22T18:17:35.125Z,100026.84
2022-12-22T18:20:02.755Z,100023.28
2022-12-22T18:22:30.302Z,100028.28
2022-12-22T18:24:57.758Z,100030.88
2022-12-22T18:27:24.417Z,100036.09
2022-12-22T18:29:51.166Z,100037.59
2022-12-22T18:32:26.325Z,100038.94
2022-12-22T18:34:54.486Z,100031.88
2022-12-22T18:37:21.225Z,100037.22
2022-12-22T18:39:47.962Z,100025.50
2022-12-22T18:42:22.944Z,100033.50
2022-12-22T18:44:50.694Z,100030.22
2022-12-22T18:47:17.496Z,100016.88
2022-12-22T18:49:44.915Z,100030.06
2022-12-22T18:52:17.493Z,100021.28
2022-12-22T18:54:44.920Z,100018.38
2022-12-22T18:57:17.571Z,100007.56
2022-12-22T18:59:45.269Z,100009.59
2022-12-22T19:02:19.741Z,99998.19
2022-12-22T19:04:47.255Z,99989.44
2022-12-22T19:07:22.432Z,99993.19
2022-12-22T19:09:49.960Z,99982.03
2022-12-22T19:12:19.599Z,99981.22
2022-12-22T19:14:50.193Z,99976.94
2022-12-22T19:17:22.786Z,99976.09
2022-12-22T19:19:49.510Z,99979.59
2022-12-22T19:22:16.615Z,99983.03
2022-12-22T19:24:43.702Z,99983.00
2022-12-22T19:27:25.393Z,99980.13
2022-12-22T19:30:03.020Z,99980.97
2022-12-22T19:32:39.374Z,99962.06
2022-12-22T19:35:16.247Z,99965.44
2022-12-22T19:37:42.904Z,99966.47
2022-12-22T19:40:12.581Z,99963.09
2022-12-22T19:42:40.653Z,99954.44
2022-12-22T19:45:21.447Z,99962.22
2022-12-22T19:47:49.710Z,99952.69
2022-12-22T19:50:27.585Z,99957.03
2022-12-22T19:52:56.013Z,99963.09
2022-12-22T19:55:25.415Z,99962.16
2022-12-22T19:57:52.630Z,99949.25
2022-12-22T20:00:25.153Z,99945.78
2022-12-22T20:02:54.659Z,99950.03
2022-12-22T20:05:24.504Z,99948.25
2022-12-22T20:07:53.606Z,99961.31
2022-12-22T20:10:21.963Z,99954.34
2022-12-22T20:12:51.969Z,99957.78
2022-12-22T20:15:21.499Z,99950.03
2022-12-22T20:17:50.256Z,99954.34
2022-12-22T20:20:36.019Z,99957.78
2022-12-22T20:23:17.864Z,99945.59
2022-12-22T20:25:49.135Z,99963.94
2022-12-22T20:28:19.850Z,99948.31
2022-12-22T20:30:48.030Z,99961.31
2022-12-22T20:33:17.177Z,99955.25
2022-12-22T20:35:45.735Z,99960.22
2022-12-22T20:38:18.238Z,99948.06
2022-12-22T20:40:46.625Z,99947.44
2022-12-22T20:43:20.092Z,99957.75
2022-12-22T20:45:50.852Z,99959.47
2022-12-22T20:48:39.260Z,99944.69
2022-12-22T20:51:10.205Z,99931.00
2022-12-22T20:53:37.144Z,99918.88
2022-12-22T20:56:04.229Z,99919.75
2022-12-22T20:58:34.520Z,99905.00
2022-12-22T21:01:02.267Z,99896.31
2022-12-22T21:03:29.407Z,99892.88
2022-12-22T21:05:56.443Z,99886.84
2022-12-22T21:08:26.124Z,99899.84
2022-12-22T21:10:54.580Z,99907.66
2022-12-22T21:13:24.216Z,99899.84
2022-12-22T21:15:51.651Z,99886.84
2022-12-22T21:18:21.845Z,99887.72
2022-12-22T21:20:50.876Z,99890.28
2022-12-22T21:23:18.314Z,99892.00
2022-12-22T21:25:49.387Z,99892.94
2022-12-22T21:28:32.141Z,99902.34
2022-12-22T21:30:59.409Z,99900.72
2022-12-22T21:33:26.857Z,99897.25
2022-12-22T21:35:55.595Z,99893.75
2022-12-22T21:38:25.675Z,99890.28
2022-12-22T21:40:52.629Z,99895.50
2022-12-22T21:43:19.539Z,99903.16
2022-12-22T21:45:49.626Z,99908.44
2022-12-22T21:48:19.104Z,99883.41
2022-12-22T21:50:47.991Z,99883.38
2022-12-22T21:53:21.506Z,99878.91
2022-12-22T21:55:49.127Z,99886.78
2022-12-22T21:58:16.186Z,99875.56
2022-12-22T22:00:48.183Z,99867.78
2022-12-22T22:03:16.030Z,99864.97
2022-12-22T22:05:43.443Z,99860.69
2022-12-22T22:08:12.357Z,99865.06
2022-12-22T22:10:42.109Z,99861.69
2022-12-22T22:13:13.853Z,99869.47
2022-12-22T22:15:40.895Z,99859.06
2022-12-22T22:18:09.277Z,99867.63
2022-12-22T22:20:36.134Z,99876.44
2022-12-22T22:23:03.003Z,99878.16
2022-12-22T22:25:29.848Z,99868.66
2022-12-22T22:27:58.832Z,99874.69
2022-12-22T22:30:26.476Z,99874.72
2022-12-22T22:32:53.989Z,99885.97
2022-12-22T22:35:21.980Z,99882.50
2022-12-22T22:37:50.013Z,99875.53
2022-12-22T22:40:19.679Z,99884.22
2022-12-22T22:42:46.775Z,99879.03
2022-12-22T22:45:16.587Z,99874.72
2022-12-22T22:47:43.470Z,99875.59
2022-12-22T22:50:10.418Z,99871.25
2022-12-22T22:52:37.527Z,99866.91
2022-12-22T22:55:04.642Z,99870.34
2022-12-22T22:57:31.633Z,99875.44
2022-12-22T22:59:58.564Z,99859.91
2022-12-22T23:02:25.559Z,99850.44
2022-12-22T23:04:52.828Z,99852.91
2022-12-22T23:07:19.741Z,99850.44
2022-12-22T23:09:46.578Z,99849.50
2022-12-22T23:12:13.454Z,99846.06
2022-12-22T23:14:40.447Z,99846.81
2022-12-22T23:17:07.321Z,99847.84
2022-12-22T23:19:34.461Z,99846.00
2022-12-22T23:22:01.385Z,99845.28
2022-12-22T23:24:28.373Z,99840.91
2022-12-22T23:26:55.315Z,99841.72
2022-12-22T23:29:22.186Z,99850.38
2022-12-22T23:31:49.192Z,99853.03
2022-12-22T23:34:16.138Z,99840.06
2022-12-22T23:36:43.044Z,99843.47
2022-12-22T23:39:11.423Z,99840.81
2022-12-22T23:41:38.323Z,99843.41
2022-12-22T23:44:05.226Z,99848.63
2022-12-22T23:46:32.139Z,99840.81
2022-12-22T23:49:00.042Z,99844.25
2022-12-22T23:51:28.869Z,99844.97
2022-12-22T23:53:56.977Z,99849.31
2022-12-22T23:56:23.965Z,99859.84
2022-12-22T23:58:54.547Z,99862.31
